createdAt,value
2019-04-20T00:00:10.909Z,0
2019-04-20T00:00:51.447Z,0
2019-04-20T00:01:32.150Z,0
2019-04-20T00:02:14.166Z,0
2019-04-20T00:02:53.240Z,0
2019-04-20T00:03:36.658Z,0
2019-04-20T00:04:16.914Z,0
2019-04-20T00:04:51.422Z,0
2019-04-20T00:05:32.949Z,0
2019-04-20T00:06:13.117Z,0
2019-04-20T00:06:54.305Z,0
2019-04-20T00:07:35.661Z,0
2019-04-20T00:08:19.321Z,0
2019-04-20T00:08:59.676Z,0
2019-04-20T00:09:36.928Z,0
2019-04-20T00:10:18.281Z,0
2019-04-20T00:11:02.318Z,0
2019-04-20T00:11:47.992Z,0
2019-04-20T00:12:20.167Z,0
2019-04-20T00:13:07.660Z,0
2019-04-20T00:13:47.541Z,0
2019-04-20T00:14:22.310Z,0
2019-04-20T00:14:57.042Z,0
2019-04-20T00:15:38.831Z,0
2019-04-20T00:16:18.880Z,0
2019-04-20T00:16:58.821Z,0
2019-04-20T00:17:45.819Z,0
2019-04-20T00:18:19.218Z,0
2019-04-20T00:19:02.165Z,0
2019-04-20T00:19:43.972Z,0
2019-04-20T00:20:24.530Z,0
2019-04-20T00:21:05.441Z,0
2019-04-20T00:21:46.865Z,0
2019-04-20T00:22:24.471Z,0
2019-04-20T00:23:01.795Z,0
2019-04-20T00:23:44.958Z,0
2019-04-20T00:24:27.227Z,0
2019-04-20T00:25:08.871Z,0
2019-04-20T00:25:54.230Z,0
2019-04-20T00:26:40.999Z,0
2019-04-20T00:27:25.244Z,0
2019-04-20T00:28:04.202Z,0
2019-04-20T00:28:44.092Z,0
2019-04-20T00:29:24.730Z,0
2019-04-20T00:29:58.541Z,0
2019-04-20T00:30:46.530Z,0
2019-04-20T00:31:23.133Z,0
2019-04-20T00:31:59.037Z,0
2019-04-20T00:32:41.105Z,0
2019-04-20T00:33:24.092Z,0
2019-04-20T00:33:59.020Z,0
2019-04-20T00:34:33.726Z,0
2019-04-20T00:35:10.373Z,0
2019-04-20T00:35:50.364Z,0
2019-04-20T00:36:30.730Z,0
2019-04-20T00:37:10.867Z,0
2019-04-20T00:37:50.819Z,0
2019-04-20T00:38:34.941Z,0
2019-04-20T00:39:14.725Z,0
2019-04-20T00:39:52.998Z,0
2019-04-20T00:40:32.693Z,0
2019-04-20T00:41:15.774Z,0
2019-04-20T00:41:58.667Z,0
2019-04-20T00:42:40.527Z,0
2019-04-20T00:43:20.821Z,0
2019-04-20T00:43:57.661Z,0
2019-04-20T00:44:38.016Z,0
2019-04-20T00:45:18.969Z,0
2019-04-20T00:46:01.005Z,0
2019-04-20T00:46:50.845Z,0
2019-04-20T00:47:30.293Z,0
2019-04-20T00:48:03.162Z,0
2019-04-20T00:48:47.150Z,0
2019-04-20T00:49:30.297Z,0
2019-04-20T00:50:10.355Z,0
2019-04-20T00:50:48.571Z,0
2019-04-20T00:51:34.763Z,0
2019-04-20T00:52:53.872Z,0
2019-04-20T00:53:29.063Z,0
2019-04-20T00:54:02.217Z,0
2019-04-20T00:54:41.255Z,0
2019-04-20T00:55:21.528Z,0
2019-04-20T00:56:03.307Z,0
2019-04-20T00:56:43.357Z,0
2019-04-20T00:57:34.533Z,0
2019-04-20T00:58:11.475Z,0
2019-04-20T00:59:02.314Z,0
2019-04-20T00:59:35.173Z,0
2019-04-20T01:00:21.095Z,0
2019-04-20T01:01:06.583Z,0
2019-04-20T01:01:47.352Z,0
2019-04-20T01:02:20.355Z,0
2019-04-20T01:02:58.760Z,0
2019-04-20T01:03:42.195Z,0
2019-04-20T01:04:23.666Z,0
2019-04-20T01:05:03.830Z,0
2019-04-20T01:05:46.186Z,0
2019-04-20T01:06:26.770Z,0
2019-04-20T01:07:01.042Z,0
2019-04-20T01:07:38.457Z,0
2019-04-20T01:08:10.000Z,0
2019-04-20T01:08:50.814Z,0
2019-04-20T01:09:30.864Z,0
2019-04-20T01:10:11.009Z,0
2019-04-20T01:10:53.152Z,0
2019-04-20T01:11:36.519Z,0
2019-04-20T01:12:16.332Z,0
2019-04-20T01:12:58.661Z,0
2019-04-20T01:13:41.985Z,0
2019-04-20T01:14:14.516Z,0
2019-04-20T01:14:57.220Z,0
2019-04-20T01:15:42.646Z,0
2019-04-20T01:16:23.937Z,0
2019-04-20T01:17:00.401Z,0
2019-04-20T01:17:37.754Z,0
2019-04-20T01:18:15.211Z,0
2019-04-20T01:18:55.403Z,0
2019-04-20T01:19:35.787Z,0
2019-04-20T01:20:16.214Z,0
2019-04-20T01:20:57.934Z,0
2019-04-20T01:21:38.267Z,0
2019-04-20T01:22:20.513Z,0
2019-04-20T01:23:04.490Z,0
2019-04-20T01:23:45.782Z,0
2019-04-20T01:24:23.639Z,0
2019-04-20T01:25:04.813Z,0
2019-04-20T01:25:43.397Z,0
2019-04-20T01:26:22.299Z,0
2019-04-20T01:27:02.408Z,0
2019-04-20T01:28:01.739Z,0
2019-04-20T01:28:37.155Z,0
2019-04-20T01:29:11.958Z,0
2019-04-20T01:29:46.673Z,0
2019-04-20T01:30:30.027Z,0
2019-04-20T01:31:14.576Z,0
2019-04-20T01:31:55.507Z,0
2019-04-20T01:32:34.138Z,0
2019-04-20T01:33:15.874Z,0
2019-04-20T01:33:54.902Z,0
2019-04-20T01:34:38.838Z,0
2019-04-20T01:35:24.565Z,0
2019-04-20T01:35:56.502Z,0
2019-04-20T01:36:45.581Z,0
2019-04-20T01:37:20.718Z,0
2019-04-20T01:38:06.665Z,0
2019-04-20T01:38:43.413Z,0
2019-04-20T01:39:17.164Z,0
2019-04-20T01:39:53.116Z,0
2019-04-20T01:40:29.512Z,0
2019-04-20T01:41:09.591Z,0
2019-04-20T01:41:49.687Z,0
2019-04-20T01:42:30.078Z,0
2019-04-20T01:43:10.285Z,0
2019-04-20T01:43:50.682Z,0
2019-04-20T01:44:36.694Z,0
2019-04-20T01:45:17.780Z,0
2019-04-20T01:45:56.616Z,0
2019-04-20T01:46:33.658Z,0
2019-04-20T01:47:13.343Z,0
2019-04-20T01:47:56.173Z,0
2019-04-20T01:48:36.652Z,0
2019-04-20T01:49:18.122Z,0
2019-04-20T01:50:01.454Z,0
2019-04-20T01:50:37.086Z,0
2019-04-20T01:51:21.096Z,0
2019-04-20T01:52:03.666Z,0
2019-04-20T01:52:50.276Z,0
2019-04-20T01:53:26.786Z,0
2019-04-20T01:54:11.603Z,0
2019-04-20T01:54:56.193Z,0
2019-04-20T01:55:32.761Z,0
2019-04-20T01:56:12.336Z,0
2019-04-20T01:56:46.870Z,0
2019-04-20T01:57:25.503Z,0
2019-04-20T01:58:17.194Z,0
2019-04-20T01:58:58.034Z,0
2019-04-20T01:59:31.437Z,0
2019-04-20T02:00:09.059Z,0
2019-04-20T02:00:43.863Z,0
2019-04-20T02:01:24.999Z,0
2019-04-20T02:02:05.054Z,0
2019-04-20T02:02:48.592Z,0
2019-04-20T02:03:28.994Z,0
2019-04-20T02:04:03.642Z,0
2019-04-20T02:04:45.864Z,0
2019-04-20T02:05:29.374Z,0
2019-04-20T02:06:09.620Z,0
2019-04-20T02:06:50.278Z,0
2019-04-20T02:07:30.626Z,0
2019-04-20T02:08:06.694Z,0
2019-04-20T02:08:46.246Z,0
2019-04-20T02:09:27.917Z,0
2019-04-20T02:10:08.623Z,0
2019-04-20T02:10:52.192Z,0
2019-04-20T02:11:32.648Z,0
2019-04-20T02:12:11.929Z,0
2019-04-20T02:12:52.967Z,0
2019-04-20T02:13:34.533Z,0
2019-04-20T02:14:10.283Z,0
2019-04-20T02:14:53.983Z,0
2019-04-20T02:15:37.623Z,0
2019-04-20T02:16:15.665Z,0
2019-04-20T02:16:58.172Z,0
2019-04-20T02:17:39.093Z,0
2019-04-20T02:18:22.516Z,0
2019-04-20T02:19:08.916Z,0
2019-04-20T02:19:46.124Z,0
2019-04-20T02:20:32.882Z,0
2019-04-20T02:21:09.233Z,0
2019-04-20T02:21:46.522Z,0
2019-04-20T02:22:29.684Z,0
2019-04-20T02:23:07.245Z,0
2019-04-20T02:23:43.760Z,0
2019-04-20T02:24:15.848Z,0
2019-04-20T02:24:55.120Z,0
2019-04-20T02:25:35.662Z,0
2019-04-20T02:26:16.044Z,0
2019-04-20T02:26:56.012Z,0
2019-04-20T02:27:43.163Z,0
2019-04-20T02:28:33.938Z,0
2019-04-20T02:29:17.140Z,0
2019-04-20T02:29:58.000Z,0
2019-04-20T02:30:55.093Z,0
2019-04-20T02:31:40.555Z,0
2019-04-20T02:32:15.197Z,0
2019-04-20T02:34:14.829Z,0
2019-04-20T02:35:34.208Z,0
2019-04-20T02:36:18.799Z,0
2019-04-20T02:36:57.715Z,0
2019-04-20T02:37:56.129Z,0
2019-04-20T02:38:21.379Z,0
2019-04-20T02:39:11.406Z,0
2019-04-20T02:40:15.200Z,0
2019-04-20T02:40:56.592Z,0
2019-04-20T02:42:17.451Z,0
2019-04-20T02:43:46.290Z,0
2019-04-20T02:44:21.175Z,0
2019-04-20T02:45:17.182Z,0
2019-04-20T02:45:43.752Z,0
2019-04-20T02:46:14.569Z,0
2019-04-20T02:47:40.158Z,0
2019-04-20T02:48:21.469Z,0
2019-04-20T02:49:09.741Z,0
2019-04-20T02:49:39.958Z,0
2019-04-20T02:50:18.821Z,0
2019-04-20T02:50:58.190Z,0
2019-04-20T02:51:46.471Z,0
2019-04-20T02:52:26.814Z,0
2019-04-20T02:53:07.849Z,0
2019-04-20T02:53:49.538Z,0
2019-04-20T02:54:18.348Z,0
2019-04-20T02:55:47.434Z,0
2019-04-20T02:56:31.461Z,0
2019-04-20T02:57:09.004Z,0
2019-04-20T02:58:22.663Z,0
2019-04-20T02:59:32.824Z,0
2019-04-20T02:59:58.575Z,0
2019-04-20T03:00:58.178Z,0
2019-04-20T03:01:35.661Z,0
2019-04-20T03:02:14.594Z,0
2019-04-20T03:02:48.499Z,0
2019-04-20T03:03:27.528Z,0
2019-04-20T03:04:01.808Z,0
2019-04-20T03:04:45.715Z,0
2019-04-20T03:05:29.196Z,0
2019-04-20T03:06:13.230Z,0
2019-04-20T03:06:54.615Z,0
2019-04-20T03:07:33.852Z,0
2019-04-20T03:08:17.200Z,0
2019-04-20T03:09:02.223Z,0
2019-04-20T03:09:39.540Z,0
2019-04-20T03:10:21.183Z,0
2019-04-20T03:11:07.849Z,0
2019-04-20T03:11:52.605Z,0
2019-04-20T03:12:28.522Z,0
2019-04-20T03:13:07.785Z,0
2019-04-20T03:13:41.140Z,0
2019-04-20T03:14:21.361Z,0
2019-04-20T03:14:58.261Z,0
2019-04-20T03:15:41.628Z,0
2019-04-20T03:16:24.032Z,0
2019-04-20T03:17:09.676Z,0
2019-04-20T03:17:44.283Z,0
2019-04-20T03:18:25.100Z,0
2019-04-20T03:19:02.338Z,0
2019-04-20T03:19:40.732Z,0
2019-04-20T03:20:26.918Z,0
2019-04-20T03:21:10.946Z,0
2019-04-20T03:21:51.151Z,0
2019-04-20T03:22:39.171Z,0
2019-04-20T03:23:22.794Z,0
2019-04-20T03:23:49.811Z,0
2019-04-20T03:24:37.235Z,0
2019-04-20T03:25:11.032Z,0
2019-04-20T03:25:54.101Z,0
2019-04-20T03:26:32.316Z,0
2019-04-20T03:27:05.592Z,0
2019-04-20T03:27:45.711Z,0
2019-04-20T03:28:30.850Z,0
2019-04-20T03:29:05.144Z,0
2019-04-20T03:29:51.868Z,0
2019-04-20T03:31:14.986Z,0
2019-04-20T03:32:24.713Z,0
2019-04-20T03:33:30.623Z,0
2019-04-20T03:34:22.374Z,0
2019-04-20T03:35:18.137Z,0
2019-04-20T03:36:06.965Z,0
2019-04-20T03:36:41.328Z,0
2019-04-20T03:37:26.450Z,0
2019-04-20T03:37:58.164Z,0
2019-04-20T03:38:35.673Z,0
2019-04-20T03:39:17.521Z,0
2019-04-20T03:39:52.466Z,0
2019-04-20T03:40:34.450Z,0
2019-04-20T03:41:11.652Z,0
2019-04-20T03:41:44.321Z,0
2019-04-20T03:42:20.327Z,0
2019-04-20T03:43:01.086Z,0
2019-04-20T03:43:41.697Z,0
2019-04-20T03:44:26.325Z,0
2019-04-20T03:45:07.470Z,0
2019-04-20T03:45:51.443Z,0
2019-04-20T03:46:30.802Z,0
2019-04-20T03:47:08.013Z,0
2019-04-20T03:47:55.771Z,0
2019-04-20T03:48:40.612Z,0
2019-04-20T03:49:24.845Z,0
2019-04-20T03:50:04.465Z,0
2019-04-20T03:50:46.120Z,0
2019-04-20T03:51:28.810Z,0
2019-04-20T03:52:02.099Z,0
2019-04-20T03:52:42.750Z,0
2019-04-20T03:53:27.600Z,0
2019-04-20T03:54:02.287Z,0
2019-04-20T03:54:38.525Z,0
2019-04-20T03:55:25.359Z,0
2019-04-20T03:56:01.887Z,0
2019-04-20T03:56:48.986Z,0
2019-04-20T03:57:34.202Z,0
2019-04-20T03:58:08.323Z,0
2019-04-20T03:58:46.996Z,0
2019-04-20T03:59:23.243Z,0
2019-04-20T04:00:09.816Z,0
2019-04-20T04:00:49.639Z,0
2019-04-20T04:01:47.212Z,0
2019-04-20T04:03:01.283Z,0
2019-04-20T04:03:40.727Z,0
2019-04-20T04:04:49.106Z,0
2019-04-20T04:05:30.931Z,0
2019-04-20T04:06:04.922Z,0
2019-04-20T04:06:42.941Z,0
2019-04-20T04:07:22.490Z,0
2019-04-20T04:08:04.999Z,0
2019-04-20T04:08:41.201Z,0
2019-04-20T04:09:28.508Z,0
2019-04-20T04:10:12.600Z,0
2019-04-20T04:10:54.424Z,0
2019-04-20T04:11:34.727Z,0
2019-04-20T04:12:08.818Z,0
2019-04-20T04:12:42.909Z,0
2019-04-20T04:13:18.875Z,0
2019-04-20T04:13:59.198Z,0
2019-04-20T04:14:40.862Z,0
2019-04-20T04:15:20.917Z,0
2019-04-20T04:16:04.750Z,0
2019-04-20T04:16:44.651Z,0
2019-04-20T04:17:26.836Z,0
2019-04-20T04:18:05.809Z,0
2019-04-20T04:18:45.866Z,0
2019-04-20T04:19:28.360Z,0
2019-04-20T04:20:08.491Z,0
2019-04-20T04:20:49.657Z,0
2019-04-20T04:21:40.438Z,0
2019-04-20T04:22:17.956Z,0
2019-04-20T04:23:03.542Z,0
2019-04-20T04:23:40.189Z,0
2019-04-20T04:24:16.869Z,0
2019-04-20T04:25:01.282Z,0
2019-04-20T04:25:36.842Z,0
2019-04-20T04:26:25.778Z,0
2019-04-20T04:26:58.189Z,0
2019-04-20T04:27:40.021Z,0
2019-04-20T04:28:24.771Z,0
2019-04-20T04:29:12.272Z,0
2019-04-20T05:06:37.212Z,50
2019-04-20T05:07:18.708Z,55
2019-04-20T05:07:59.193Z,55
2019-04-20T05:08:36.500Z,60
2019-04-20T05:09:12.276Z,60
2019-04-20T05:09:50.680Z,60
2019-04-20T05:10:30.783Z,65
2019-04-20T05:11:11.129Z,65
2019-04-20T05:11:59.593Z,65
2019-04-20T05:12:34.060Z,70
2019-04-20T05:13:13.563Z,70
2019-04-20T05:13:58.236Z,75
2019-04-20T05:14:43.614Z,75
2019-04-20T05:15:24.515Z,80
2019-04-20T05:16:07.354Z,80
2019-04-20T05:16:49.768Z,85
2019-04-20T05:17:33.822Z,90
2019-04-20T05:18:11.313Z,90
2019-04-20T05:18:56.392Z,95
2019-04-20T05:19:36.344Z,100
2019-04-20T05:20:13.059Z,105
2019-04-20T05:20:58.308Z,110
2019-04-20T05:21:35.589Z,115
2019-04-20T05:22:19.195Z,115
2019-04-20T05:22:55.721Z,120
2019-04-20T05:23:31.588Z,125
2019-04-20T05:24:11.027Z,130
2019-04-20T05:25:01.718Z,140
2019-04-20T05:25:35.790Z,145
2019-04-20T05:26:19.518Z,165
2019-04-20T05:27:01.214Z,215
2019-04-20T05:27:39.002Z,285
2019-04-20T05:28:16.578Z,340
2019-04-20T05:28:51.249Z,370
2019-04-20T05:29:26.961Z,390
2019-04-20T05:30:01.960Z,390
2019-04-20T05:30:46.635Z,375
2019-04-20T05:31:30.741Z,345
2019-04-20T05:32:09.421Z,325
2019-04-20T05:32:52.776Z,320
2019-04-20T05:33:34.019Z,330
2019-04-20T05:34:24.046Z,340
2019-04-20T05:35:10.729Z,340
2019-04-20T05:35:42.369Z,345
2019-04-20T05:36:21.688Z,340
2019-04-20T05:37:14.887Z,330
2019-04-20T05:37:48.534Z,335
2019-04-20T05:38:31.042Z,335
2019-04-20T05:39:14.250Z,340
2019-04-20T05:39:49.906Z,340
2019-04-20T05:40:26.051Z,350
2019-04-20T05:41:06.902Z,360
2019-04-20T05:41:45.086Z,365
2019-04-20T05:42:29.817Z,375
2019-04-20T05:43:10.465Z,390
2019-04-20T05:43:46.646Z,400
2019-04-20T05:44:25.445Z,415
2019-04-20T05:45:11.148Z,430
2019-04-20T05:45:44.677Z,440
2019-04-20T05:46:30.500Z,445
2019-04-20T05:47:10.652Z,445
2019-04-20T05:47:47.506Z,450
2019-04-20T05:48:28.427Z,460
2019-04-20T05:49:16.878Z,465
2019-04-20T05:49:49.634Z,460
2019-04-20T05:50:30.091Z,465
2019-04-20T05:51:16.473Z,470
2019-04-20T05:51:52.422Z,485
2019-04-20T05:52:41.808Z,495
2019-04-20T05:53:19.073Z,495
2019-04-20T05:53:56.287Z,500
2019-04-20T05:54:38.658Z,505
2019-04-20T05:55:14.240Z,520
2019-04-20T05:55:54.077Z,525
2019-04-20T05:56:39.581Z,525
2019-04-20T05:57:24.875Z,525
2019-04-20T05:58:01.768Z,535
2019-04-20T05:58:38.275Z,540
2019-04-20T05:59:14.808Z,555
2019-04-20T06:00:06.660Z,575
2019-04-20T06:00:47.259Z,590
2019-04-20T06:01:24.532Z,600
2019-04-20T06:02:03.270Z,595
2019-04-20T06:02:43.684Z,595
2019-04-20T06:03:20.143Z,610
2019-04-20T06:03:57.581Z,625
2019-04-20T06:04:53.766Z,635
2019-04-20T06:05:27.332Z,625
2019-04-20T06:06:07.505Z,625
2019-04-20T06:06:44.213Z,635
2019-04-20T06:07:24.842Z,650
2019-04-20T06:08:04.937Z,650
2019-04-20T06:09:05.047Z,650
2019-04-20T06:09:27.364Z,645
2019-04-20T06:10:11.027Z,650
2019-04-20T06:10:49.257Z,655
2019-04-20T06:11:25.449Z,645
2019-04-20T06:12:45.314Z,635
2019-04-20T06:13:21.870Z,635
2019-04-20T06:13:58.798Z,645
2019-04-20T06:14:46.656Z,660
2019-04-20T06:15:23.277Z,680
2019-04-20T06:16:07.197Z,680
2019-04-20T06:16:55.586Z,675
2019-04-20T06:17:31.196Z,700
2019-04-20T06:18:06.112Z,720
2019-04-20T06:18:45.026Z,720
2019-04-20T06:19:43.624Z,740
2019-04-20T06:20:10.968Z,750
2019-04-20T06:20:52.257Z,770
2019-04-20T06:21:36.441Z,785
2019-04-20T06:22:18.541Z,790
2019-04-20T06:22:54.472Z,770
2019-04-20T06:23:38.349Z,785
2019-04-20T06:24:16.596Z,780
2019-04-20T06:25:00.699Z,795
2019-04-20T06:25:43.638Z,805
2019-04-20T06:26:26.140Z,825
2019-04-20T06:26:59.114Z,825
2019-04-20T06:27:39.767Z,830
2019-04-20T06:28:12.270Z,835
2019-04-20T06:28:49.789Z,845
2019-04-20T06:29:34.576Z,845
2019-04-20T06:30:13.427Z,860
2019-04-20T06:30:51.991Z,860
2019-04-20T06:31:40.537Z,840
2019-04-20T06:32:26.957Z,800
2019-04-20T06:32:59.090Z,800
2019-04-20T06:33:59.671Z,830
2019-04-20T06:34:30.013Z,885
2019-04-20T06:35:01.263Z,905
2019-04-20T06:36:00.467Z,900
2019-04-20T06:36:27.314Z,880
2019-04-20T06:37:15.732Z,890
2019-04-20T06:37:43.034Z,930
2019-04-20T06:38:42.078Z,940
2019-04-20T06:39:07.738Z,925
2019-04-20T06:40:45.423Z,955
2019-04-20T06:41:11.622Z,965
2019-04-20T06:42:21.358Z,965
2019-04-20T06:43:03.904Z,955
2019-04-20T06:43:52.605Z,945
2019-04-20T06:44:31.616Z,795
2019-04-20T06:45:09.607Z,560
2019-04-20T06:45:56.392Z,400
2019-04-20T06:46:28.178Z,375
2019-04-20T06:47:51.349Z,360
2019-04-20T06:48:34.742Z,360
2019-04-20T06:49:16.644Z,360
2019-04-20T06:49:41.887Z,365
2019-04-20T06:50:28.682Z,370
2019-04-20T06:51:07.078Z,370
2019-04-20T06:51:52.627Z,375
2019-04-20T06:52:42.102Z,370
2019-04-20T06:53:15.855Z,370
2019-04-20T06:53:48.539Z,370
2019-04-20T06:54:29.496Z,365
2019-04-20T06:55:08.088Z,360
2019-04-20T06:55:57.126Z,360
2019-04-20T06:56:35.183Z,355
2019-04-20T06:57:17.007Z,355
2019-04-20T06:57:54.056Z,355
2019-04-20T06:58:43.136Z,365
2019-04-20T06:59:19.467Z,365
2019-04-20T06:59:59.443Z,370
2019-04-20T07:00:37.576Z,370
2019-04-20T07:01:16.935Z,370
2019-04-20T07:02:02.660Z,365
2019-04-20T07:02:41.107Z,365
2019-04-20T07:03:30.409Z,375
2019-04-20T07:04:10.592Z,380
2019-04-20T07:05:21.999Z,370
2019-04-20T07:06:05.913Z,365
2019-04-20T07:06:50.069Z,360
2019-04-20T07:07:23.729Z,365
2019-04-20T07:08:08.072Z,355
2019-04-20T07:08:56.194Z,355
2019-04-20T07:09:30.639Z,350
2019-04-20T07:10:51.219Z,350
2019-04-20T07:11:23.096Z,355
2019-04-20T07:12:02.438Z,355
2019-04-20T07:12:40.762Z,355
2019-04-20T07:13:17.502Z,350
2019-04-20T07:13:54.268Z,350
2019-04-20T07:14:40.236Z,345
2019-04-20T07:15:22.470Z,345
2019-04-20T07:16:01.110Z,340
2019-04-20T07:16:44.454Z,340
2019-04-20T07:17:38.858Z,335
2019-04-20T07:18:07.936Z,335
2019-04-20T07:18:49.494Z,330
2019-04-20T07:19:28.463Z,325
2019-04-20T07:20:03.937Z,315
2019-04-20T07:20:55.204Z,310
2019-04-20T07:21:43.503Z,300
2019-04-20T07:22:24.770Z,295
2019-04-20T07:22:50.881Z,280
2019-04-20T07:23:30.993Z,265
2019-04-20T07:24:16.877Z,255
2019-04-20T07:24:56.261Z,240
2019-04-20T07:25:36.944Z,235
2019-04-20T07:26:16.402Z,225
2019-04-20T07:26:55.310Z,220
2019-04-20T07:27:34.825Z,210
2019-04-20T07:28:16.955Z,210
2019-04-20T07:28:58.659Z,205
2019-04-20T07:29:40.397Z,200
2019-04-20T07:30:29.470Z,195
2019-04-20T07:30:55.042Z,190
2019-04-20T07:31:35.967Z,185
2019-04-20T07:32:09.661Z,180
2019-04-20T07:33:03.543Z,175
2019-04-20T07:33:39.138Z,170
2019-04-20T07:34:20.190Z,170
2019-04-20T07:35:01.167Z,165
2019-04-20T07:35:39.864Z,160
2019-04-20T07:36:24.057Z,160
2019-04-20T07:37:09.664Z,155
2019-04-20T07:37:56.716Z,155
2019-04-20T07:38:30.546Z,150
2019-04-20T07:39:06.947Z,150
2019-04-20T07:39:40.004Z,145
2019-04-20T07:40:20.011Z,145
2019-04-20T07:40:58.580Z,140
2019-04-20T07:41:47.605Z,140
2019-04-20T07:42:28.296Z,135
2019-04-20T07:43:14.493Z,140
2019-04-20T07:43:52.607Z,130
2019-04-20T07:44:34.090Z,130
2019-04-20T07:45:06.947Z,135
2019-04-20T07:45:41.177Z,125
2019-04-20T07:46:40.526Z,125
2019-04-20T07:47:13.350Z,125
2019-04-20T07:47:45.455Z,125
2019-04-20T07:48:24.641Z,125
2019-04-20T07:49:07.162Z,125
2019-04-20T07:49:45.526Z,120
2019-04-20T07:50:21.141Z,120
2019-04-20T07:50:57.871Z,120
2019-04-20T07:51:33.822Z,115
2019-04-20T07:52:10.254Z,115
2019-04-20T07:53:01.395Z,115
2019-04-20T07:53:44.912Z,115
2019-04-20T07:54:35.332Z,115
2019-04-20T07:55:32.674Z,110
2019-04-20T07:55:53.622Z,110
2019-04-20T07:56:36.873Z,110
2019-04-20T07:57:09.426Z,110
2019-04-20T07:57:46.566Z,110
2019-04-20T07:58:24.630Z,105
2019-04-20T07:59:01.341Z,105
2019-04-20T07:59:55.717Z,105
2019-04-20T08:00:41.033Z,105
2019-04-20T08:01:21.077Z,105
2019-04-20T08:02:00.400Z,105
2019-04-20T08:02:42.340Z,100
2019-04-20T08:03:21.457Z,100
2019-04-20T08:04:00.933Z,100
2019-04-20T08:04:36.226Z,100
2019-04-20T08:05:10.493Z,100
2019-04-20T08:05:48.382Z,100
2019-04-20T08:06:25.814Z,100
2019-04-20T08:07:03.487Z,100
2019-04-20T08:07:49.338Z,100
2019-04-20T08:08:32.428Z,95
2019-04-20T08:09:14.373Z,95
2019-04-20T08:09:49.582Z,95
2019-04-20T08:10:37.925Z,95
2019-04-20T08:11:13.618Z,95
2019-04-20T08:12:11.131Z,95
2019-04-20T08:12:49.782Z,95
2019-04-20T08:13:31.801Z,95
2019-04-20T08:14:17.893Z,95
2019-04-20T08:14:44.253Z,95
2019-04-20T08:15:36.235Z,90
2019-04-20T08:16:06.206Z,90
2019-04-20T08:16:58.106Z,90
2019-04-20T08:17:36.889Z,90
2019-04-20T08:18:49.582Z,90
2019-04-20T08:19:27.091Z,90
2019-04-20T08:20:09.028Z,90
2019-04-20T08:20:52.226Z,90
2019-04-20T08:21:28.260Z,90
2019-04-20T08:22:14.833Z,90
2019-04-20T08:22:51.465Z,90
2019-04-20T08:23:28.413Z,90
2019-04-20T08:24:06.751Z,85
2019-04-20T08:24:42.517Z,85
2019-04-20T08:25:23.391Z,85
2019-04-20T08:26:01.383Z,85
2019-04-20T08:26:38.852Z,85
2019-04-20T08:27:15.866Z,85
2019-04-20T08:27:54.953Z,85
2019-04-20T08:28:44.575Z,85
2019-04-20T08:29:26.553Z,85
2019-04-20T08:30:06.344Z,85
2019-04-20T08:30:51.112Z,85
2019-04-20T08:31:29.597Z,85
2019-04-20T08:32:17.661Z,90
2019-04-20T08:32:50.463Z,85
2019-04-20T08:33:34.603Z,85
2019-04-20T08:34:34.935Z,85
2019-04-20T08:34:57.533Z,85
2019-04-20T08:35:38.760Z,85
2019-04-20T08:36:22.642Z,85
2019-04-20T08:37:00.755Z,85
2019-04-20T08:37:38.414Z,85
2019-04-20T08:38:49.666Z,85
2019-04-20T08:39:50.916Z,85
2019-04-20T08:40:19.302Z,85
2019-04-20T08:40:57.264Z,85
2019-04-20T08:41:44.868Z,80
2019-04-20T08:42:21.461Z,80
2019-04-20T08:43:10.502Z,80
2019-04-20T08:43:52.992Z,80
2019-04-20T08:44:45.579Z,80
2019-04-20T08:45:06.934Z,80
2019-04-20T08:45:46.465Z,80
2019-04-20T08:46:24.965Z,80
2019-04-20T08:47:09.809Z,80
2019-04-20T08:47:49.726Z,80
2019-04-20T08:48:28.430Z,80
2019-04-20T08:49:07.993Z,80
2019-04-20T08:49:48.992Z,80
2019-04-20T08:50:26.781Z,80
2019-04-20T08:51:06.915Z,80
2019-04-20T08:51:54.857Z,80
2019-04-20T08:52:46.329Z,80
2019-04-20T08:53:20.077Z,80
2019-04-20T08:53:51.619Z,80
2019-04-20T08:54:25.905Z,80
2019-04-20T08:55:09.066Z,80
2019-04-20T08:55:44.829Z,80
2019-04-20T08:56:24.474Z,80
2019-04-20T08:56:56.459Z,80
2019-04-20T08:57:33.441Z,80
2019-04-20T08:58:13.638Z,80
2019-04-20T08:58:52.913Z,80
2019-04-20T08:59:35.078Z,80
2019-04-20T09:00:18.075Z,80
2019-04-20T09:00:58.621Z,80
2019-04-20T09:01:36.061Z,80
2019-04-20T09:02:17.015Z,80
2019-04-20T09:03:01.184Z,80
2019-04-20T09:03:46.092Z,80
2019-04-20T09:04:20.605Z,75
2019-04-20T09:05:03.086Z,75
2019-04-20T09:05:48.654Z,75
2019-04-20T09:06:32.117Z,75
2019-04-20T09:07:05.340Z,75
2019-04-20T09:07:48.818Z,75
2019-04-20T09:08:24.761Z,75
2019-04-20T09:09:20.567Z,75
2019-04-20T09:10:00.136Z,75
2019-04-20T09:10:42.044Z,75
2019-04-20T09:11:14.009Z,75
2019-04-20T09:12:14.320Z,75
2019-04-20T09:12:38.922Z,75
2019-04-20T09:13:11.324Z,75
2019-04-20T09:13:47.646Z,75
2019-04-20T09:14:23.581Z,75
2019-04-20T09:15:05.951Z,75
2019-04-20T09:15:45.292Z,75
2019-04-20T09:16:29.598Z,75
2019-04-20T09:17:09.156Z,75
2019-04-20T09:17:52.215Z,75
2019-04-20T09:18:33.072Z,75
2019-04-20T09:19:12.626Z,75
2019-04-20T09:19:55.625Z,75
2019-04-20T09:20:36.092Z,75
2019-04-20T09:21:21.965Z,75
2019-04-20T09:21:54.807Z,75
2019-04-20T09:22:37.772Z,75
2019-04-20T09:23:26.353Z,75
2019-04-20T09:24:14.419Z,75
2019-04-20T09:24:50.803Z,75
2019-04-20T09:25:53.194Z,75
2019-04-20T09:26:08.675Z,75
2019-04-20T09:26:47.317Z,75
2019-04-20T09:27:21.641Z,75
2019-04-20T09:28:07.002Z,75
2019-04-20T09:28:39.302Z,75
2019-04-20T09:31:25.264Z,70
2019-04-20T09:32:06.584Z,70
2019-04-20T09:32:38.182Z,70
2019-04-20T09:33:22.057Z,75
2019-04-20T09:34:05.813Z,75
2019-04-20T09:34:46.311Z,70
2019-04-20T09:35:24.681Z,70
2019-04-20T09:36:01.875Z,70
2019-04-20T09:36:41.872Z,70
2019-04-20T09:37:23.356Z,70
2019-04-20T09:38:04.755Z,70
2019-04-20T09:38:43.935Z,70
2019-04-20T09:39:20.847Z,70
2019-04-20T09:40:07.752Z,70
2019-04-20T09:40:49.280Z,70
2019-04-20T09:41:30.226Z,70
2019-04-20T09:42:00.301Z,70
2019-04-20T09:42:33.576Z,70
2019-04-20T09:43:15.738Z,70
2019-04-20T09:43:54.392Z,70
2019-04-20T09:44:37.407Z,70
2019-04-20T09:45:23.040Z,70
2019-04-20T09:46:01.354Z,70
2019-04-20T09:46:39.884Z,70
2019-04-20T09:47:23.221Z,70
2019-04-20T09:47:58.350Z,70
2019-04-20T09:48:42.518Z,70
2019-04-20T09:49:28.307Z,70
2019-04-20T09:50:13.372Z,70
2019-04-20T09:50:57.388Z,70
2019-04-20T09:51:37.195Z,70
2019-04-20T09:52:13.143Z,70
2019-04-20T09:52:56.734Z,70
2019-04-20T09:53:33.384Z,70
2019-04-20T09:54:18.444Z,70
2019-04-20T09:54:58.812Z,70
2019-04-20T09:55:31.059Z,70
2019-04-20T09:56:19.240Z,70
2019-04-20T09:57:03.070Z,70
2019-04-20T09:57:37.725Z,70
2019-04-20T09:58:15.237Z,70
2019-04-20T09:59:00.572Z,70
2019-04-20T09:59:42.719Z,70
2019-04-20T10:00:23.442Z,70
2019-04-20T10:01:01.632Z,70
2019-04-20T10:01:34.828Z,70
2019-04-20T10:02:15.665Z,70
2019-04-20T10:02:48.404Z,70
2019-04-20T10:03:29.017Z,70
2019-04-20T10:04:08.581Z,70
2019-04-20T10:04:49.377Z,65
2019-04-20T10:05:29.601Z,65
2019-04-20T10:06:09.805Z,65
2019-04-20T10:06:50.187Z,65
2019-04-20T10:07:33.936Z,65
2019-04-20T10:08:11.755Z,65
2019-04-20T10:08:54.784Z,65
2019-04-20T10:09:37.051Z,65
2019-04-20T10:10:21.116Z,65
2019-04-20T10:10:54.200Z,65
2019-04-20T10:11:33.094Z,65
2019-04-20T10:12:13.600Z,65
2019-04-20T10:12:54.218Z,65
2019-04-20T10:13:34.432Z,65
2019-04-20T10:14:14.787Z,65
2019-04-20T10:14:57.282Z,65
2019-04-20T10:15:35.600Z,65
2019-04-20T10:16:16.009Z,65
2019-04-20T10:16:57.851Z,65
2019-04-20T10:17:38.475Z,65
2019-04-20T10:18:17.471Z,65
2019-04-20T10:18:58.741Z,65
2019-04-20T10:19:39.516Z,65
2019-04-20T10:20:23.450Z,65
2019-04-20T10:20:59.878Z,65
2019-04-20T10:21:39.332Z,65
2019-04-20T10:22:20.429Z,70
2019-04-20T10:23:00.508Z,70
2019-04-20T10:23:40.715Z,65
2019-04-20T10:24:21.032Z,65
2019-04-20T10:25:02.619Z,65
2019-04-20T10:25:42.560Z,65
2019-04-20T10:26:22.706Z,65
2019-04-20T10:27:02.985Z,65
2019-04-20T10:27:43.653Z,65
2019-04-20T10:28:23.541Z,65
2019-04-20T10:29:03.975Z,65
2019-04-20T11:06:54.469Z,60
2019-04-20T11:07:34.652Z,60
2019-04-20T11:08:14.938Z,60
2019-04-20T11:08:56.272Z,60
2019-04-20T11:09:36.607Z,60
2019-04-20T11:10:22.676Z,60
2019-04-20T11:11:08.790Z,60
2019-04-20T11:11:40.728Z,60